CWB weather

Public forecast

Using degrees Celsius for public forecast. Weather courtesy of forecast.io.

Current aviation weather report (METAR) for Afonso Pena Airport

Retrieved 2020/08/10 15:00 UTC (37 minutes ago):

SBCT 101500Z 31013KT CAVOK 24/07 Q1021

Aviation forecast (TAF) for Afonso Pena Airport

Retrieved 2020/08/10 12:00 UTC (4 hours ago):

TAF SBCT 100900Z 1012/1112 03005KT 9999 BKN010 TX25/1018Z TN15/1109Z BECMG 1012/1014 34005KT CAVOK BECMG 1015/1017 28009KT BECMG 1021/1023 29005KT 9999 FEW004 BECMG 1103/1105 2000 BR FEW004 RMK PDL